sim
Sign-in with your pilot id or email,
or register
Callsign
Passwort

Schedule Details

Flight Number: EWG6000
Departure: Dusseldorf International Airport (EDDL) at 10:30
Arrival: Munich Airport (EDDM) at 11:35
Route: Eurowings Passenger Schedule. Enter filed route here before submitting Pirep.

Weather Information
Getting current METAR information for EDDL 282020Z 15007KT 9999 SCT025 12/09 Q1012 NOSIG
Getting current METAR information for EDDM 282020Z VRB02KT CAVOK 09/07 Q1015 NOSIG

Schedule Frequency

Route Map